Time;durP1;ratioP1;P1;durP2;ratioP2;P2;SDS_P1;SDS_P2;PMS_P1;PMS_P2;Temp;Humidity;BMP_temperature;BMP_pressure;BME280_temperature;BME280_humidity;BME280_pressure;Samples;Min_cycle;Max_cycle;Signal;HPM_P1;HPM_P2
2022/07/23 00:00:08;;;;;;;1.03;1.03;;;;;;;24.07;67.08;95489.75;4393499;32;20193;-59
2022/07/23 00:02:34;;;;;;;1.60;1.60;;;;;;;24.07;66.26;95478.91;4398836;32;20206;-60
2022/07/23 00:05:02;;;;;;;1.90;1.80;;;;;;;24.12;65.60;95487.47;4338496;32;20204;-60
2022/07/23 00:07:29;;;;;;;0.83;0.83;;;;;;;24.06;65.87;95483.56;4384582;32;20214;-60
2022/07/23 00:09:55;;;;;;;1.37;1.27;;;;;;;24.05;65.57;95479.28;4393610;32;20222;-60
2022/07/23 00:12:25;;;;;;;1.10;1.10;;;;;;;23.98;65.97;95476.50;4378376;32;20183;-59
2022/07/23 00:14:50;;;;;;;1.37;1.37;;;;;;;24.06;64.81;95466.50;4391173;32;20188;-60
2022/07/23 00:17:19;;;;;;;2.00;1.90;;;;;;;23.96;65.43;95463.34;4382010;32;20183;-60
2022/07/23 00:19:47;;;;;;;1.13;1.13;;;;;;;23.95;65.29;95461.78;4365456;32;20255;-59
2022/07/23 00:22:13;;;;;;;1.50;1.50;;;;;;;23.96;64.99;95460.63;4399296;32;20230;-60
2022/07/23 00:24:38;;;;;;;1.77;1.67;;;;;;;24.04;63.81;95461.47;4334796;32;20253;-60
2022/07/23 00:27:07;;;;;;;1.33;1.30;;;;;;;24.04;63.77;95463.41;4381056;32;20335;-60
2022/07/23 00:29:32;;;;;;;2.00;1.90;;;;;;;24.01;63.49;95475.00;4390788;32;20206;-60
2022/07/23 00:31:57;;;;;;;1.80;1.50;;;;;;;23.99;63.64;95478.06;4401984;32;20188;-60
2022/07/23 00:34:24;;;;;;;1.77;1.67;;;;;;;23.97;64.37;95481.16;4383792;32;20225;-60
2022/07/23 00:36:50;;;;;;;0.97;0.97;;;;;;;23.94;64.17;95478.41;4392738;32;20230;-59
2022/07/23 00:39:15;;;;;;;0.83;0.83;;;;;;;23.94;63.45;95479.19;4368174;32;20192;-60
2022/07/23 00:41:40;;;;;;;1.30;1.30;;;;;;;23.92;63.67;95473.37;4399896;32;20210;-60
2022/07/23 00:44:23;;;;;;;2.00;1.77;;;;;;;23.88;63.38;95461.75;4390271;32;20228;-60
2022/07/23 00:46:53;;;;;;;1.47;1.37;;;;;;;23.97;62.46;95464.88;4361519;32;20239;-60
2022/07/23 00:49:30;;;;;;;1.40;1.33;;;;;;;23.99;62.10;95484.28;4358464;32;20302;-60
2022/07/23 00:51:57;;;;;;;1.90;1.80;;;;;;;23.98;62.19;95507.09;4393290;32;20234;-59
2022/07/23 00:54:25;;;;;;;1.20;1.20;;;;;;;23.84;63.95;95498.88;4369390;32;20327;-59
2022/07/23 00:56:50;;;;;;;1.27;1.27;;;;;;;23.81;64.59;95504.25;4391835;32;20297;-60
2022/07/23 00:59:17;;;;;;;1.37;1.37;;;;;;;23.76;65.20;95512.72;4373584;32;20192;-59
2022/07/23 01:01:45;;;;;;;1.70;1.60;;;;;;;23.72;65.37;95511.91;4391404;32;20258;-59
2022/07/23 01:04:11;;;;;;;0.63;0.63;;;;;;;23.70;65.27;95517.69;4403190;32;20233;-60
2022/07/23 01:06:38;;;;;;;1.00;1.00;;;;;;;23.67;65.64;95526.59;4404740;32;20200;-60
2022/07/23 01:09:06;;;;;;;1.20;1.20;;;;;;;23.67;65.78;95533.94;4383789;32;20227;-60
2022/07/23 01:11:36;;;;;;;1.23;1.23;;;;;;;23.62;65.99;95540.44;4385267;32;20248;-60
2022/07/23 01:14:15;;;;;;;1.10;1.10;;;;;;;23.61;65.57;95566.00;4398371;32;20233;-60
2022/07/23 01:16:42;;;;;;;2.33;2.13;;;;;;;23.63;65.32;95588.06;4402391;32;20203;-60
2022/07/23 01:19:08;;;;;;;1.40;1.40;;;;;;;23.65;65.28;95610.16;4400866;32;20255;-60
2022/07/23 01:21:39;;;;;;;1.23;1.23;;;;;;;23.65;65.48;95626.41;4403410;32;20183;-60
2022/07/23 01:24:05;;;;;;;1.60;1.60;;;;;;;23.71;65.97;95643.88;4403896;32;21750;-60
2022/07/23 01:26:30;;;;;;;2.67;2.57;;;;;;;23.67;66.83;95655.84;4403543;32;20200;-59
2022/07/23 01:28:56;;;;;;;2.23;2.03;;;;;;;23.64;65.50;95679.03;4393125;32;20192;-60
2022/07/23 01:31:22;;;;;;;1.43;1.43;;;;;;;23.61;63.68;95671.66;4394519;32;20267;-60
2022/07/23 01:33:47;;;;;;;2.20;2.10;;;;;;;23.50;61.63;95693.13;4397443;32;20233;-60
2022/07/23 01:36:13;;;;;;;2.63;1.53;;;;;;;23.24;62.17;95712.91;4401485;32;20208;-60
2022/07/23 01:38:38;;;;;;;1.33;1.33;;;;;;;22.88;63.35;95691.84;4401483;32;20268;-60
2022/07/23 01:41:06;;;;;;;1.30;1.30;;;;;;;22.68;64.30;95665.97;4402358;32;20191;-60
2022/07/23 01:43:32;;;;;;;1.10;1.10;;;;;;;22.42;63.59;95664.03;4403650;32;20241;-60
2022/07/23 01:45:57;;;;;;;1.07;1.07;;;;;;;22.36;62.89;95644.62;4403683;32;20267;-60
2022/07/23 01:48:22;;;;;;;1.30;1.30;;;;;;;22.18;63.79;95640.81;4404025;32;20207;-59
2022/07/23 01:50:48;;;;;;;0.83;0.83;;;;;;;22.09;65.36;95641.06;4403912;32;20233;-60
2022/07/23 01:53:14;;;;;;;1.37;1.37;;;;;;;21.95;66.87;95641.56;4403004;32;20222;-59
2022/07/23 01:55:40;;;;;;;0.80;0.80;;;;;;;22.10;67.22;95656.13;4403358;32;20211;-60
2022/07/23 01:58:05;;;;;;;1.20;1.10;;;;;;;22.10;68.16;95663.44;4401974;32;20271;-60
2022/07/23 02:00:31;;;;;;;1.83;1.53;;;;;;;21.99;68.83;95641.63;4402285;32;20214;-60
2022/07/23 02:02:58;;;;;;;1.27;1.27;;;;;;;21.91;69.25;95639.91;4392636;32;20201;-59
2022/07/23 02:05:24;;;;;;;1.40;1.40;;;;;;;21.89;70.41;95629.47;4399127;32;20228;-60
2022/07/23 02:07:49;;;;;;;1.40;1.40;;;;;;;21.81;70.60;95610.78;4394660;32;20293;-60
2022/07/23 02:10:14;;;;;;;1.80;1.70;;;;;;;21.74;71.15;95624.16;4405345;32;20358;-60
2022/07/23 02:12:40;;;;;;;1.37;1.27;;;;;;;21.51;73.51;95616.00;4401720;32;20210;-60
2022/07/23 02:15:06;;;;;;;1.20;1.20;;;;;;;21.47;74.72;95617.84;4399207;32;20239;-59
2022/07/23 02:17:31;;;;;;;1.20;1.20;;;;;;;21.36;75.81;95624.94;4395994;32;20196;-60
2022/07/23 02:19:57;;;;;;;2.03;1.93;;;;;;;21.27;78.94;95620.53;4403833;32;20176;-60
2022/07/23 02:22:23;;;;;;;1.40;1.30;;;;;;;21.14;79.34;95619.09;4404028;32;20214;-60
2022/07/23 02:24:48;;;;;;;1.03;1.03;;;;;;;21.15;78.15;95622.56;4400612;32;20243;-60
2022/07/23 02:27:13;;;;;;;1.40;0.87;;;;;;;21.13;75.14;95612.13;4398709;32;20254;-59
2022/07/23 02:29:39;;;;;;;1.53;1.43;;;;;;;21.25;75.51;95582.31;4404391;32;20207;-59
2022/07/23 02:32:04;;;;;;;1.20;1.20;;;;;;;21.07;77.10;95588.47;4398961;32;20270;-59
2022/07/23 02:34:30;;;;;;;1.13;0.90;;;;;;;20.88;78.11;95573.81;4403605;32;20196;-59
2022/07/23 02:36:55;;;;;;;0.90;0.90;;;;;;;20.87;78.11;95574.16;4398192;32;20238;-57
2022/07/23 02:39:20;;;;;;;0.53;0.53;;;;;;;20.84;79.28;95581.03;4402757;32;20187;-60
2022/07/23 02:41:46;;;;;;;0.90;0.90;;;;;;;20.83;78.72;95565.22;4406265;32;20192;-60
2022/07/23 02:44:11;;;;;;;0.63;0.63;;;;;;;20.88;79.17;95559.53;4399773;32;20196;-60
2022/07/23 02:46:36;;;;;;;0.87;0.87;;;;;;;20.82;80.29;95553.62;4402135;32;20184;-60
2022/07/23 02:49:04;;;;;;;1.33;1.23;;;;;;;20.80;81.12;95560.50;4405613;32;20180;-60
2022/07/23 02:51:29;;;;;;;0.70;0.70;;;;;;;20.82;79.57;95574.44;4405999;32;20223;-59
2022/07/23 02:53:55;;;;;;;0.57;0.57;;;;;;;20.89;83.01;95585.38;4406899;32;20179;-59
2022/07/23 02:56:20;;;;;;;0.50;0.50;;;;;;;20.96;82.84;95599.03;4406063;32;20192;-60
2022/07/23 02:58:45;;;;;;;0.67;0.67;;;;;;;20.89;84.00;95623.94;4407099;32;20267;-60
2022/07/23 03:01:11;;;;;;;0.40;0.40;;;;;;;21.05;83.16;95675.16;4406199;32;20181;-59
2022/07/23 03:03:41;;;;;;;0.50;0.50;;;;;;;20.83;85.55;95656.91;4395460;32;20184;-60
2022/07/23 03:06:11;;;;;;;1.10;1.10;;;;;;;20.74;86.18;95664.41;4374413;32;20250;-59
2022/07/23 03:08:37;;;;;;;1.23;0.97;;;;;;;20.86;85.94;95651.59;4405515;32;20192;-60
2022/07/23 03:11:02;;;;;;;0.90;0.90;;;;;;;20.70;88.15;95674.34;4395091;32;20229;-59
2022/07/23 03:13:32;;;;;;;5.67;1.23;;;;;;;20.71;87.40;95686.69;4399845;32;20207;-60
2022/07/23 03:16:00;;;;;;;0.77;0.77;;;;;;;20.65;86.56;95678.06;4374001;32;20210;-61
2022/07/23 03:18:26;;;;;;;0.90;0.90;;;;;;;20.56;86.94;95670.16;4386324;32;20216;-60
2022/07/23 03:20:51;;;;;;;0.63;0.63;;;;;;;20.63;88.62;95655.28;4392124;32;20256;-59
2022/07/23 03:23:18;;;;;;;1.07;1.07;;;;;;;20.70;88.98;95653.53;4393590;32;20228;-59
2022/07/23 03:25:48;;;;;;;0.50;0.50;;;;;;;20.49;88.69;95655.72;4378303;32;20297;-59
2022/07/23 03:28:15;;;;;;;1.27;1.27;;;;;;;20.66;88.62;95660.75;4401604;32;20192;-61
2022/07/23 03:30:46;;;;;;;0.90;0.90;;;;;;;20.58;88.67;95662.50;4395368;32;20200;-59
2022/07/23 03:33:16;;;;;;;1.10;1.10;;;;;;;20.73;88.12;95660.94;4394512;32;20200;-59
2022/07/23 03:35:47;;;;;;;1.40;1.40;;;;;;;20.72;88.23;95655.87;4389788;32;20196;-59
2022/07/23 03:38:13;;;;;;;1.70;1.07;;;;;;;20.63;88.15;95628.31;4368228;32;20279;-60
2022/07/23 03:40:39;;;;;;;0.70;0.70;;;;;;;20.64;88.37;95611.00;4386531;32;20200;-59
2022/07/23 03:43:05;;;;;;;1.20;1.10;;;;;;;20.54;88.35;95590.78;4385092;32;23398;-59
2022/07/23 03:45:32;;;;;;;0.77;0.77;;;;;;;20.57;87.76;95568.50;4393739;32;20184;-59
2022/07/23 03:48:01;;;;;;;0.67;0.67;;;;;;;20.53;87.04;95541.47;4378626;32;20192;-60
2022/07/23 03:50:26;;;;;;;0.93;0.93;;;;;;;20.31;87.08;95495.47;4394539;32;20188;-60
2022/07/23 03:52:52;;;;;;;1.30;1.30;;;;;;;20.37;86.79;95491.41;4401138;32;20188;-60
2022/07/23 03:55:19;;;;;;;0.93;0.93;;;;;;;20.37;86.66;95515.69;4390468;32;20251;-60
2022/07/23 03:57:44;;;;;;;1.23;1.23;;;;;;;20.53;84.62;95549.56;4385458;32;20195;-59
2022/07/23 04:00:11;;;;;;;1.47;1.37;;;;;;;20.53;84.84;95581.91;4369572;32;20195;-59
2022/07/23 04:02:38;;;;;;;1.30;1.17;;;;;;;20.34;86.87;95571.03;4390306;32;20200;-59
2022/07/23 04:05:04;;;;;;;0.67;0.67;;;;;;;20.13;86.58;95565.91;4362311;32;20216;-59
2022/07/23 04:07:31;;;;;;;1.43;1.43;;;;;;;20.39;87.52;95561.91;4388917;32;20235;-59
2022/07/23 04:09:57;;;;;;;1.40;1.30;;;;;;;20.52;86.55;95552.59;4381388;32;20192;-59
2022/07/23 04:12:24;;;;;;;1.13;1.13;;;;;;;20.51;86.60;95549.13;4382554;32;20196;-59
2022/07/23 04:14:50;;;;;;;1.20;1.20;;;;;;;20.58;86.47;95560.03;4365234;32;20231;-59
2022/07/23 04:17:17;;;;;;;1.13;1.13;;;;;;;20.64;86.05;95557.84;4390724;32;20194;-59
2022/07/23 04:19:43;;;;;;;1.00;1.00;;;;;;;20.61;85.03;95568.56;4403733;32;20200;-59
2022/07/23 04:22:12;;;;;;;1.53;1.53;;;;;;;20.56;85.90;95559.63;4385269;32;20259;-59
2022/07/23 04:24:39;;;;;;;1.20;1.20;;;;;;;20.58;85.86;95554.66;4390003;32;20188;-59
2022/07/23 04:27:08;;;;;;;1.50;1.40;;;;;;;20.64;85.49;95543.59;4381506;32;20211;-59
2022/07/23 04:29:34;;;;;;;1.27;1.20;;;;;;;20.68;85.62;95530.97;4395756;32;20217;-59
2022/07/23 04:32:01;;;;;;;0.93;0.93;;;;;;;20.65;86.22;95528.97;4371742;32;20233;-59
2022/07/23 04:34:27;;;;;;;1.73;1.63;;;;;;;20.65;84.54;95512.81;4351188;32;20236;-59
2022/07/23 04:36:54;;;;;;;1.50;1.40;;;;;;;20.70;85.30;95502.53;4397455;32;20208;-59
2022/07/23 04:39:21;;;;;;;0.77;0.77;;;;;;;20.73;84.16;95511.84;4402499;32;20268;-59
2022/07/23 04:41:47;;;;;;;1.27;1.23;;;;;;;20.75;85.18;95514.97;4394699;32;20188;-62
2022/07/23 04:44:14;;;;;;;0.80;0.80;;;;;;;20.80;84.20;95528.16;4394445;32;20210;-59
2022/07/23 04:46:40;;;;;;;0.87;0.87;;;;;;;20.78;84.49;95530.44;4380450;32;20237;-59
2022/07/23 04:49:06;;;;;;;2.10;1.73;;;;;;;20.75;84.74;95533.84;4374482;32;20213;-59
2022/07/23 04:51:33;;;;;;;2.07;1.97;;;;;;;20.78;83.39;95533.13;4390130;32;20227;-59
2022/07/23 04:54:02;;;;;;;1.10;1.10;;;;;;;20.80;82.31;95528.16;4400632;32;20204;-59
2022/07/23 04:56:29;;;;;;;0.80;0.80;;;;;;;20.91;83.86;95529.94;4394317;32;20226;-59
2022/07/23 04:58:55;;;;;;;1.43;1.33;;;;;;;20.97;82.09;95525.06;4361192;32;20188;-59
2022/07/23 05:01:22;;;;;;;1.30;1.30;;;;;;;20.97;82.50;95518.87;4386632;32;20196;-59
2022/07/23 05:03:48;;;;;;;1.77;1.67;;;;;;;20.94;83.95;95512.28;4347774;32;20252;-59
2022/07/23 05:06:18;;;;;;;1.50;1.40;;;;;;;20.87;83.12;95512.13;4395016;32;20225;-59
2022/07/23 05:08:43;;;;;;;1.33;1.33;;;;;;;20.98;82.88;95517.75;4400475;32;20243;-59
2022/07/23 05:11:10;;;;;;;1.10;1.10;;;;;;;20.92;83.20;95520.72;4374413;32;20219;-59
2022/07/23 05:13:35;;;;;;;1.87;1.77;;;;;;;20.91;82.13;95523.78;4401494;32;20281;-59
2022/07/23 05:16:02;;;;;;;1.37;1.27;;;;;;;21.01;81.84;95523.19;4384578;32;20195;-59
2022/07/23 05:18:31;;;;;;;1.73;1.70;;;;;;;21.01;80.68;95523.19;4373686;32;20203;-59
2022/07/23 05:20:56;;;;;;;0.97;0.97;;;;;;;21.13;80.88;95522.28;4392985;32;20200;-60
2022/07/23 05:23:22;;;;;;;1.20;1.20;;;;;;;21.06;81.38;95520.22;4395114;32;20218;-60
2022/07/23 05:25:50;;;;;;;2.10;1.93;;;;;;;21.11;81.32;95528.03;4406838;32;20251;-60
2022/07/23 05:28:16;;;;;;;1.13;1.10;;;;;;;21.13;81.24;95525.75;4399497;32;20202;-60
2022/07/23 05:30:41;;;;;;;1.07;1.03;;;;;;;21.11;81.82;95532.66;4379720;32;20255;-60
2022/07/23 05:33:08;;;;;;;2.10;2.00;;;;;;;21.07;81.04;95537.19;4380839;32;20210;-60
2022/07/23 05:35:34;;;;;;;1.23;1.23;;;;;;;20.99;80.55;95524.72;4365462;32;20199;-60
2022/07/23 05:38:00;;;;;;;1.80;1.70;;;;;;;21.10;80.14;95531.09;4384613;32;20254;-60
2022/07/23 05:40:27;;;;;;;1.50;1.50;;;;;;;21.04;80.68;95530.59;4372341;32;20197;-60
2022/07/23 05:42:54;;;;;;;1.67;1.57;;;;;;;21.05;80.78;95539.47;4399757;32;20199;-60
2022/07/23 05:45:20;;;;;;;1.00;1.00;;;;;;;21.05;82.02;95540.25;4391273;32;20232;-59
2022/07/23 05:47:48;;;;;;;0.97;0.97;;;;;;;21.08;81.59;95544.16;4366725;32;20246;-63
2022/07/23 05:50:16;;;;;;;1.37;1.37;;;;;;;21.12;81.87;95539.63;4383641;32;20203;-60
2022/07/23 05:52:43;;;;;;;1.07;0.97;;;;;;;21.19;81.10;95547.84;4402166;32;20212;-59
2022/07/23 05:55:12;;;;;;;1.83;1.67;;;;;;;21.17;80.00;95555.53;4395965;32;20202;-60
2022/07/23 05:57:37;;;;;;;1.77;1.70;;;;;;;21.23;81.59;95568.41;4395248;32;20184;-59
2022/07/23 06:00:04;;;;;;;1.87;1.80;;;;;;;21.15;82.46;95572.06;4397776;32;20219;-60
2022/07/23 06:02:30;;;;;;;1.33;1.33;;;;;;;21.30;80.11;95572.37;4387323;32;20231;-60
2022/07/23 06:04:56;;;;;;;1.90;1.80;;;;;;;21.31;80.54;95569.31;4385989;32;20218;-59
2022/07/23 06:07:23;;;;;;;1.70;1.60;;;;;;;21.35;81.02;95575.59;4367378;32;20259;-59
2022/07/23 06:09:49;;;;;;;2.70;1.77;;;;;;;21.38;81.00;95580.28;4402359;32;20180;-62
2022/07/23 06:12:16;;;;;;;1.03;1.03;;;;;;;21.44;79.42;95588.84;4378722;32;20192;-60
2022/07/23 06:14:45;;;;;;;2.50;2.33;;;;;;;21.45;79.31;95576.91;4397465;32;20192;-60
2022/07/23 06:17:11;;;;;;;2.50;2.27;;;;;;;21.38;79.79;95568.69;4380178;32;20209;-60
2022/07/23 06:19:36;;;;;;;2.33;2.23;;;;;;;21.43;80.93;95565.69;4368009;32;20190;-60
2022/07/23 06:22:02;;;;;;;1.70;1.70;;;;;;;21.37;81.46;95556.34;4390011;32;20200;-60
2022/07/23 06:24:29;;;;;;;1.57;0.83;;;;;;;21.36;81.37;95550.16;4400688;32;20210;-59
2022/07/23 06:26:55;;;;;;;7.43;1.87;;;;;;;21.36;81.54;95536.66;4363610;32;20351;-60
2022/07/23 06:29:22;;;;;;;2.50;1.30;;;;;;;21.19;81.78;95535.16;4405394;32;20188;-60
2022/07/23 06:31:47;;;;;;;1.97;1.87;;;;;;;21.18;82.46;95524.72;4384076;32;20223;-60
2022/07/23 06:34:14;;;;;;;1.60;1.50;;;;;;;21.16;82.25;95513.50;4396897;32;20188;-60
2022/07/23 06:36:41;;;;;;;1.50;1.50;;;;;;;21.16;81.78;95525.06;4402519;32;20203;-59
2022/07/23 06:39:07;;;;;;;1.27;1.27;;;;;;;21.25;82.18;95549.94;4387340;32;20287;-59
2022/07/23 06:41:34;;;;;;;1.53;1.53;;;;;;;21.20;83.72;95555.59;4376495;32;20264;-59
2022/07/23 06:43:59;;;;;;;2.13;2.03;;;;;;;21.26;83.85;95556.87;4368327;32;20202;-59
2022/07/23 06:46:25;;;;;;;2.83;2.63;;;;;;;21.25;83.80;95555.31;4383801;32;20184;-59
2022/07/23 06:48:52;;;;;;;1.40;1.30;;;;;;;21.31;83.06;95573.94;4383163;32;20185;-59
2022/07/23 06:51:19;;;;;;;1.50;1.47;;;;;;;21.33;83.12;95571.66;4379031;32;20218;-59
2022/07/23 06:53:45;;;;;;;1.37;1.30;;;;;;;21.37;82.26;95589.50;4382695;32;20188;-61
2022/07/23 06:56:13;;;;;;;2.57;2.37;;;;;;;21.40;82.12;95591.50;4392614;32;20214;-59
2022/07/23 06:58:40;;;;;;;1.30;1.30;;;;;;;21.46;81.77;95602.78;4386097;32;20188;-60
2022/07/23 07:01:10;;;;;;;2.37;1.70;;;;;;;21.37;81.98;95599.53;4374756;32;20347;-59
2022/07/23 07:03:36;;;;;;;2.20;2.10;;;;;;;21.35;81.92;95599.88;4357230;32;20267;-60
2022/07/23 07:06:02;;;;;;;2.27;2.17;;;;;;;21.47;81.25;95598.94;4394742;32;20188;-59
2022/07/23 07:08:36;;;;;;;2.23;2.13;;;;;;;21.40;81.24;95598.81;4398210;32;20255;-60
2022/07/23 07:11:02;;;;;;;1.57;1.47;;;;;;;21.45;81.70;95601.22;4394928;32;20199;-60
2022/07/23 07:13:29;;;;;;;1.13;1.13;;;;;;;21.40;82.07;95588.03;4388107;32;20207;-60
2022/07/23 07:15:54;;;;;;;1.87;1.70;;;;;;;21.41;82.04;95593.03;4356241;32;20208;-59
2022/07/23 07:18:20;;;;;;;1.37;1.27;;;;;;;21.30;82.46;95591.28;4402180;32;20272;-59
2022/07/23 07:20:45;;;;;;;1.43;1.43;;;;;;;21.36;82.54;95589.88;4404802;32;20207;-63
2022/07/23 07:23:12;;;;;;;1.53;1.43;;;;;;;21.30;83.40;95599.38;4389447;32;20239;-59
2022/07/23 07:25:39;;;;;;;2.13;2.03;;;;;;;21.36;83.51;95597.97;4376243;32;20197;-59
2022/07/23 07:28:05;;;;;;;1.50;1.40;;;;;;;21.45;83.95;95593.91;4396700;32;20256;-60
2022/07/23 07:30:33;;;;;;;1.30;1.30;;;;;;;21.39;84.51;95597.25;4387434;32;20240;-59
2022/07/23 07:33:00;;;;;;;1.17;1.17;;;;;;;21.42;85.01;95593.81;4397895;32;20192;-59
2022/07/23 07:35:27;;;;;;;2.33;2.23;;;;;;;21.52;85.91;95598.66;4402519;32;20244;-60
2022/07/23 07:37:53;;;;;;;3.93;1.33;;;;;;;21.58;85.71;95605.34;4403764;32;20192;-60
2022/07/23 07:40:21;;;;;;;1.40;1.40;;;;;;;21.50;84.19;95615.22;4399516;32;20202;-61
2022/07/23 07:42:52;;;;;;;1.00;1.00;;;;;;;21.42;84.21;95613.50;4384706;32;20195;-60
2022/07/23 07:45:21;;;;;;;2.13;2.03;;;;;;;21.34;84.23;95616.44;4396902;32;20260;-59
2022/07/23 07:47:49;;;;;;;2.47;2.37;;;;;;;21.45;84.26;95620.09;4387474;32;20192;-60
2022/07/23 07:50:15;;;;;;;1.33;1.23;;;;;;;21.42;84.08;95616.19;4402806;32;20192;-60
2022/07/23 07:52:41;;;;;;;0.93;0.93;;;;;;;21.37;83.64;95627.31;4357410;32;20261;-59
2022/07/23 07:55:08;;;;;;;1.97;1.60;;;;;;;21.36;84.17;95636.53;4369392;32;20200;-59
2022/07/23 07:57:35;;;;;;;1.40;1.30;;;;;;;21.43;83.96;95639.34;4381196;32;20256;-60
2022/07/23 08:00:05;;;;;;;1.20;1.13;;;;;;;21.44;83.85;95632.81;4383475;32;20227;-60
2022/07/23 08:02:40;;;;;;;2.47;2.30;;;;;;;21.56;84.25;95629.22;4402502;32;20257;-60
2022/07/23 08:05:08;;;;;;;2.03;1.93;;;;;;;21.53;83.73;95627.22;4390050;32;20271;-60
2022/07/23 08:07:33;;;;;;;2.00;1.80;;;;;;;21.52;83.61;95634.53;4361962;32;20177;-60
2022/07/23 08:10:01;;;;;;;1.17;1.17;;;;;;;21.56;83.34;95626.53;4384535;32;20255;-59
2022/07/23 08:12:27;;;;;;;1.57;1.57;;;;;;;21.51;82.75;95622.19;4391453;32;20191;-60
2022/07/23 08:14:53;;;;;;;1.30;1.30;;;;;;;;;;4390918;32;20203;-59
2022/07/23 08:17:18;;;;;;;1.30;1.30;;;;;;;;;;4397038;32;20260;-59
2022/07/23 08:20:06;;;;;;;2.00;1.90;;;;;;;21.56;83.60;95623.81;4399737;32;20195;-59
2022/07/23 08:23:07;;;;;;;4.93;1.60;;;;;;;21.63;82.99;95632.03;4393289;32;20214;-59
2022/07/23 08:25:41;;;;;;;1.93;1.90;;;;;;;21.68;83.08;95637.16;4320422;32;20207;-59
2022/07/23 08:28:09;;;;;;;1.60;1.57;;;;;;;21.61;82.05;95632.41;4403751;32;20308;-59
2022/07/23 08:30:36;;;;;;;1.87;1.77;;;;;;;21.76;81.18;95633.47;4393570;32;20271;-59
2022/07/23 08:33:15;;;;;;;1.57;1.57;;;;;;;21.74;81.26;95641.16;4339785;32;20271;-59
2022/07/23 08:35:47;;;;;;;1.20;1.20;;;;;;;21.83;80.65;95639.00;4392506;32;20224;-59
2022/07/23 08:38:17;;;;;;;1.03;1.03;;;;;;;21.85;80.12;95642.13;4385484;32;20214;-59
2022/07/23 08:40:45;;;;;;;1.20;1.20;;;;;;;21.84;80.44;95640.56;4396789;32;20235;-59
2022/07/23 08:43:13;;;;;;;2.13;2.03;;;;;;;21.95;80.69;95640.78;4369205;32;20200;-60
2022/07/23 08:45:41;;;;;;;1.87;1.77;;;;;;;21.92;79.71;95639.56;4371505;32;20244;-59
2022/07/23 08:48:14;;;;;;;2.17;1.73;;;;;;;22.12;79.76;95643.03;4356336;32;20227;-59
2022/07/23 08:50:46;;;;;;;1.60;1.50;;;;;;;22.18;79.75;95638.91;4401122;32;20187;-60
2022/07/23 08:53:15;;;;;;;1.70;1.60;;;;;;;22.24;78.80;95632.03;4344809;32;20204;-59
2022/07/23 08:55:45;;;;;;;2.20;2.10;;;;;;;22.29;78.55;95642.56;4383988;32;20215;-59
2022/07/23 08:58:13;;;;;;;1.80;1.80;;;;;;;22.31;77.69;95646.84;4396802;32;20191;-59
2022/07/23 09:00:39;;;;;;;1.20;1.20;;;;;;;22.42;77.70;95637.78;4368170;32;20252;-59
2022/07/23 09:03:05;;;;;;;1.50;1.50;;;;;;;22.38;76.93;95644.25;4384211;32;20206;-59
2022/07/23 09:05:31;;;;;;;1.87;1.87;;;;;;;22.40;77.81;95656.28;4392479;32;20256;-60
2022/07/23 09:08:21;;;;;;;1.73;1.57;;;;;;;22.45;77.36;95653.25;4361284;32;20196;-59
2022/07/23 09:10:48;;;;;;;1.00;1.00;;;;;;;22.44;76.71;95659.03;4395604;32;20211;-60
2022/07/23 09:13:32;;;;;;;1.40;1.37;;;;;;;22.50;77.11;95671.09;4401147;32;20192;-59
2022/07/23 09:16:02;;;;;;;1.07;1.07;;;;;;;22.49;77.64;95686.56;4373959;32;20256;-60
2022/07/23 09:18:31;;;;;;;1.70;1.60;;;;;;;22.52;77.06;95685.84;4383527;32;20203;-59
2022/07/23 09:21:13;;;;;;;1.73;1.63;;;;;;;22.55;77.09;95689.75;4387579;32;20233;-59
2022/07/23 09:24:00;;;;;;;1.47;1.47;;;;;;;22.62;77.61;95685.25;4400475;32;20336;-59
2022/07/23 09:26:39;;;;;;;1.73;1.63;;;;;;;22.60;76.63;95692.16;4397515;32;20184;-60
2022/07/23 09:29:25;;;;;;;1.20;0.90;;;;;;;22.69;76.47;95689.97;4398201;32;20196;-59
2022/07/23 09:32:00;;;;;;;1.83;1.83;;;;;;;22.69;77.25;95695.37;4399757;32;20211;-59
2022/07/23 09:34:38;;;;;;;1.30;1.30;;;;;;;22.77;77.32;95690.88;4382773;32;20206;-59
2022/07/23 09:37:17;;;;;;;1.83;1.73;;;;;;;22.88;76.51;95687.22;4369467;32;20184;-60
2022/07/23 09:39:45;;;;;;;1.33;1.33;;;;;;;22.94;75.43;95687.69;4404564;32;20188;-60
2022/07/23 09:42:26;;;;;;;1.73;1.43;;;;;;;22.99;74.86;95692.81;4358035;32;20200;-59
2022/07/23 09:44:54;;;;;;;1.10;1.10;;;;;;;23.13;75.22;95703.84;4384687;32;20192;-59
2022/07/23 09:47:22;;;;;;;0.83;0.83;;;;;;;23.29;73.72;95693.63;4391508;32;20232;-59
2022/07/23 09:50:06;;;;;;;1.10;1.10;;;;;;;23.39;73.43;95688.72;4388278;32;20206;-60
2022/07/23 09:52:43;;;;;;;1.77;1.67;;;;;;;23.56;70.93;95680.88;4384869;32;20231;-59
2022/07/23 09:55:09;;;;;;;1.50;1.40;;;;;;;23.75;70.19;95684.56;4382917;32;20244;-59
2022/07/23 09:57:39;;;;;;;2.30;1.20;;;;;;;23.82;69.03;95674.63;4401727;32;20180;-59
2022/07/23 10:00:10;;;;;;;1.80;1.80;;;;;;;23.94;69.21;95682.50;4350573;32;20207;-59
2022/07/23 10:02:37;;;;;;;1.50;1.50;;;;;;;24.11;68.73;95670.28;4380903;32;20299;-59
2022/07/23 10:05:06;;;;;;;1.77;1.67;;;;;;;24.20;68.69;95665.34;4376753;32;20196;-59
2022/07/23 10:07:36;;;;;;;1.30;1.30;;;;;;;24.31;65.96;95655.41;4389285;32;20200;-60
2022/07/23 10:10:05;;;;;;;1.60;1.43;;;;;;;24.45;66.14;95662.13;4365422;32;20201;-60
2022/07/23 10:15:10;;;;;;;0.97;0.97;;;;;;;24.84;62.12;95657.00;4394165;32;20202;-60
2022/07/23 10:17:36;;;;;;;4.40;2.10;;;;;;;25.02;61.01;95657.94;4383336;32;20257;-60
2022/07/23 10:20:05;;;;;;;1.33;1.33;;;;;;;25.14;60.88;95656.87;4394270;32;20200;-60
2022/07/23 10:22:37;;;;;;;1.53;1.43;;;;;;;25.26;59.09;95657.31;4359653;32;20189;-60
2022/07/23 10:25:31;;;;;;;1.37;1.37;;;;;;;25.19;59.74;95661.94;4382230;32;20199;-60
2022/07/23 10:28:28;;;;;;;0.83;0.83;;;;;;;25.11;59.26;95644.06;4402538;32;20200;-60
2022/07/23 10:31:15;;;;;;;1.40;1.30;;;;;;;25.22;59.38;95634.00;4394992;32;20196;-60
2022/07/23 10:33:59;;;;;;;1.70;1.70;;;;;;;25.31;59.36;95629.03;4390949;32;20214;-60
2022/07/23 10:36:53;;;;;;;2.20;2.10;;;;;;;25.41;58.75;95625.56;4397281;32;20192;-60
2022/07/23 10:39:31;;;;;;;1.90;1.80;;;;;;;25.50;57.73;95631.44;4402914;32;20193;-61
2022/07/23 10:42:20;;;;;;;1.43;1.43;;;;;;;25.51;58.12;95627.56;4384666;32;20188;-60
2022/07/23 10:44:49;;;;;;;6.00;2.80;;;;;;;25.39;59.03;95629.81;4383689;32;20247;-60
2022/07/23 10:47:42;;;;;;;0.90;0.90;;;;;;;25.30;60.26;95630.19;4386747;32;20237;-59
2022/07/23 10:50:34;;;;;;;1.40;1.13;;;;;;;25.36;59.14;95628.66;4400927;32;20200;-59
2022/07/23 10:53:17;;;;;;;0.83;0.83;;;;;;;25.36;58.45;95628.66;4404735;32;20251;-60
2022/07/23 10:55:50;;;;;;;1.40;1.40;;;;;;;25.38;57.08;95630.97;4387545;32;20208;-60
2022/07/23 10:58:22;;;;;;;0.50;0.50;;;;;;;25.30;57.78;95638.34;4406847;32;20192;-61
2022/07/23 11:00:48;;;;;;;1.73;1.63;;;;;;;25.33;56.17;95635.66;4407369;32;20258;-60
2022/07/23 11:03:32;;;;;;;1.13;1.13;;;;;;;25.33;56.49;95635.66;4408659;32;20285;-60
2022/07/23 11:05:59;;;;;;;1.10;1.10;;;;;;;25.42;56.37;95631.78;4389547;32;20191;-60
2022/07/23 11:08:27;;;;;;;4.70;1.77;;;;;;;25.33;56.77;95624.78;4392371;32;20271;-60
2022/07/23 11:11:07;;;;;;;1.87;1.83;;;;;;;25.33;56.67;95627.50;4393870;32;20216;-60
2022/07/23 11:13:45;;;;;;;0.97;0.97;;;;;;;25.38;57.17;95629.03;4401496;32;20196;-60
2022/07/23 11:16:15;;;;;;;1.53;1.53;;;;;;;25.32;57.75;95631.38;4367515;32;20210;-60
2022/07/23 11:18:44;;;;;;;2.13;2.03;;;;;;;25.27;58.20;95623.56;4389874;32;20199;-60
2022/07/23 11:21:31;;;;;;;1.80;1.70;;;;;;;25.28;57.61;95627.06;4386291;32;20214;-60
2022/07/23 11:24:02;;;;;;;0.90;0.90;;;;;;;25.09;59.16;95619.97;4383335;32;20191;-60
2022/07/23 11:26:50;;;;;;;1.40;1.40;;;;;;;25.10;58.15;95616.13;4389898;32;20184;-60
2022/07/23 11:29:26;;;;;;;1.17;1.17;;;;;;;25.05;57.68;95624.59;4368586;32;20192;-63
2022/07/23 11:32:19;;;;;;;2.13;1.67;;;;;;;25.04;57.85;95619.56;4389761;32;20195;-60
2022/07/23 11:34:48;;;;;;;1.03;1.03;;;;;;;24.91;58.95;95636.13;4400696;32;20236;-59
2022/07/23 11:37:47;;;;;;;0.63;0.63;;;;;;;24.96;57.75;95624.94;4398640;32;20285;-59
2022/07/23 11:40:16;;;;;;;1.87;1.77;;;;;;;24.84;59.31;95625.22;4345450;32;20206;-60
2022/07/23 11:42:52;;;;;;;7.30;1.40;;;;;;;24.83;58.72;95634.53;4389855;32;20188;-59
2022/07/23 11:45:19;;;;;;;1.10;1.10;;;;;;;24.78;59.21;95620.50;4374524;32;20278;-59